Time;durP1;ratioP1;P1;durP2;ratioP2;P2;SDS_P1;SDS_P2;PMS_P1;PMS_P2;Temp;Humidity;BMP_temperature;BMP_pressure;BME280_temperature;BME280_humidity;BME280_pressure;Samples;Min_cycle;Max_cycle;Signal;HPM_P1;HPM_P2
2022/11/19 00:00:39;;;;;;;9.75;6.97;;;3.60;41.30;;;;;;5013697;28;20811;-40
2022/11/19 00:03:05;;;;;;;10.93;8.10;;;3.60;41.30;;;;;;5014044;28;20202;-41
2022/11/19 00:05:31;;;;;;;7.70;6.60;;;3.60;41.30;;;;;;5013635;28;20167;-41
2022/11/19 00:07:57;;;;;;;10.03;7.03;;;3.50;41.40;;;;;;5013584;28;20187;-41
2022/11/19 00:10:22;;;;;;;11.57;8.23;;;3.50;41.50;;;;;;5013812;28;20569;-42
2022/11/19 00:12:54;;;;;;;11.63;7.53;;;3.50;41.70;;;;;;4996210;28;20256;-40
2022/11/19 00:15:20;;;;;;;18.35;7.60;;;3.50;41.60;;;;;;5013739;28;20186;-40
2022/11/19 00:17:46;;;;;;;12.73;8.82;;;3.50;41.70;;;;;;5013109;28;20178;-42
2022/11/19 00:20:13;;;;;;;10.73;7.20;;;3.50;41.70;;;;;;5013625;28;20221;-42
2022/11/19 00:22:42;;;;;;;12.38;7.60;;;3.40;41.50;;;;;;5013494;28;20191;-40
2022/11/19 00:25:08;;;;;;;10.88;7.47;;;3.40;41.50;;;;;;5013528;28;20705;-41
2022/11/19 00:27:34;;;;;;;11.13;7.78;;;3.40;41.50;;;;;;4995440;28;20170;-40
2022/11/19 00:30:01;;;;;;;9.33;5.97;;;3.40;41.50;;;;;;5013745;28;20634;-41
2022/11/19 00:32:27;;;;;;;10.48;7.75;;;3.30;41.50;;;;;;5013361;28;20956;-42
2022/11/19 00:34:53;;;;;;;9.63;7.85;;;3.30;41.50;;;;;;5013353;28;20542;-43
2022/11/19 00:37:19;;;;;;;11.60;7.15;;;3.30;41.50;;;;;;5012931;28;20185;-42
2022/11/19 00:39:45;;;;;;;12.15;7.97;;;3.20;41.30;;;;;;5013275;28;20238;-40
2022/11/19 00:42:10;;;;;;;12.23;8.27;;;3.20;41.30;;;;;;5013255;28;20232;-40
2022/11/19 00:44:36;;;;;;;9.67;7.47;;;3.20;41.30;;;;;;5013246;28;20191;-41
2022/11/19 00:47:02;;;;;;;12.07;8.07;;;3.10;41.40;;;;;;5012660;28;20174;-40
2022/11/19 00:49:27;;;;;;;14.07;8.93;;;3.10;41.20;;;;;;5013058;28;20543;-41
2022/11/19 00:51:54;;;;;;;11.90;7.13;;;3.10;41.40;;;;;;5013116;28;20308;-41
2022/11/19 00:54:20;;;;;;;13.38;7.93;;;3.00;41.20;;;;;;5012866;28;20720;-40
2022/11/19 00:56:45;;;;;;;9.70;7.03;;;3.00;41.30;;;;;;5012672;28;20232;-43
2022/11/19 00:59:11;;;;;;;10.20;6.83;;;3.00;41.10;;;;;;4995298;28;20199;-43
2022/11/19 01:01:37;;;;;;;11.17;8.10;;;3.00;40.80;;;;;;5012938;28;20166;-40
2022/11/19 01:04:03;;;;;;;12.77;8.80;;;2.90;41.00;;;;;;5012787;28;20250;-40
2022/11/19 01:06:29;;;;;;;12.52;8.23;;;2.90;41.10;;;;;;4994607;28;20205;-40
2022/11/19 01:08:55;;;;;;;10.00;7.68;;;2.90;41.20;;;;;;5012869;28;20588;-41
2022/11/19 01:11:24;;;;;;;14.00;8.77;;;2.80;41.00;;;;;;4995112;28;20178;-40
2022/11/19 01:13:50;;;;;;;14.50;7.60;;;2.80;41.10;;;;;;5012016;28;20193;-42
2022/11/19 01:16:27;;;;;;;10.55;8.27;;;2.70;41.10;;;;;;5012135;28;20190;-43
2022/11/19 01:18:53;;;;;;;12.20;7.47;;;2.70;41.20;;;;;;5012765;28;20194;-41
2022/11/19 01:21:20;;;;;;;13.70;7.97;;;2.70;41.10;;;;;;5012536;28;20178;-43
2022/11/19 01:23:47;;;;;;;8.98;6.80;;;2.70;41.20;;;;;;5012645;28;20196;-43
2022/11/19 01:26:14;;;;;;;11.13;7.00;;;2.60;41.10;;;;;;5012195;28;20177;-41
2022/11/19 01:28:40;;;;;;;8.30;6.72;;;2.60;41.10;;;;;;5012544;28;20182;-42
2022/11/19 01:31:11;;;;;;;11.77;7.90;;;2.60;41.20;;;;;;5012512;28;20182;-42
2022/11/19 01:33:37;;;;;;;11.13;7.95;;;2.60;41.10;;;;;;5012467;28;20203;-39
2022/11/19 01:36:06;;;;;;;9.70;6.47;;;2.60;40.90;;;;;;5011912;28;20182;-41
2022/11/19 01:38:32;;;;;;;10.70;8.18;;;2.60;41.10;;;;;;5012345;28;20448;-41
2022/11/19 01:40:59;;;;;;;8.82;6.70;;;2.50;41.00;;;;;;5012467;28;20178;-42
2022/11/19 01:43:46;;;;;;;12.70;7.93;;;2.40;40.60;;;;;;5012414;28;20200;-41
2022/11/19 01:46:15;;;;;;;10.65;8.23;;;2.30;40.70;;;;;;5011931;28;20637;-41
2022/11/19 01:48:52;;;;;;;13.40;6.82;;;2.20;40.80;;;;;;5012356;28;20179;-42
2022/11/19 01:51:27;;;;;;;13.98;9.13;;;2.20;40.90;;;;;;5012362;28;20859;-40
2022/11/19 01:53:57;;;;;;;9.90;6.70;;;2.20;40.90;;;;;;5012185;28;20212;-42
2022/11/19 01:56:23;;;;;;;13.15;7.85;;;2.20;41.30;;;;;;5011719;28;20261;-40
2022/11/19 01:58:55;;;;;;;14.88;8.05;;;2.20;41.40;;;;;;5012423;28;20575;-41
2022/11/19 02:01:22;;;;;;;13.88;8.05;;;2.20;41.30;;;;;;5012327;28;20623;-43
2022/11/19 02:03:49;;;;;;;10.50;7.78;;;2.20;41.00;;;;;;5012168;28;20309;-41
2022/11/19 02:06:15;;;;;;;11.02;8.05;;;2.20;41.20;;;;;;5011695;28;20170;-41
2022/11/19 02:08:48;;;;;;;10.03;7.70;;;2.10;41.00;;;;;;5011862;28;20201;-41
2022/11/19 02:11:36;;;;;;;12.15;8.93;;;2.10;41.10;;;;;;5012430;28;20472;-42
2022/11/19 02:14:10;;;;;;;14.30;8.23;;;2.10;41.20;;;;;;5012394;28;20248;-40
2022/11/19 02:17:00;;;;;;;11.25;7.38;;;2.10;41.30;;;;;;5011816;28;20163;-41
2022/11/19 02:19:51;;;;;;;12.98;8.63;;;2.10;41.40;;;;;;5012470;28;20204;-41
2022/11/19 02:22:48;;;;;;;13.55;7.75;;;2.10;41.40;;;;;;5012326;28;20197;-42
2022/11/19 02:25:38;;;;;;;8.95;7.43;;;2.10;41.30;;;;;;4930385;28;20186;-41
2022/11/19 02:28:37;;;;;;;12.60;8.02;;;2.10;41.30;;;;;;5015940;28;20533;-42
2022/11/19 02:31:33;;;;;;;13.20;7.65;;;2.00;41.00;;;;;;5016357;28;20174;-42
2022/11/19 02:34:08;;;;;;;11.43;8.07;;;2.00;41.30;;;;;;5009684;28;20300;-41
2022/11/19 02:36:44;;;;;;;11.93;7.68;;;2.00;41.40;;;;;;5016374;28;20224;-42
2022/11/19 02:39:29;;;;;;;13.95;9.25;;;2.00;41.40;;;;;;5015525;28;20192;-40
2022/11/19 02:42:20;;;;;;;11.57;7.60;;;1.90;41.40;;;;;;5015707;28;20209;-42
2022/11/19 02:45:01;;;;;;;10.35;7.03;;;2.00;41.30;;;;;;5016237;28;20261;-41
2022/11/19 02:47:44;;;;;;;12.85;7.97;;;1.90;41.00;;;;;;5015646;28;20155;-42
2022/11/19 02:50:25;;;;;;;10.77;6.93;;;1.80;40.60;;;;;;5015279;28;20519;-41
2022/11/19 02:52:51;;;;;;;11.70;8.10;;;1.60;40.60;;;;;;5015711;28;20201;-44
2022/11/19 02:55:19;;;;;;;15.10;9.98;;;1.60;41.30;;;;;;5015549;28;20161;-42
2022/11/19 02:57:56;;;;;;;17.67;10.02;;;1.60;41.30;;;;;;5014712;28;20170;-41
2022/11/19 03:06:22;;;;;;;15.35;9.60;;;1.70;41.20;;;;;;5015124;28;20213;-42
2022/11/19 03:08:48;;;;;;;11.98;9.43;;;1.70;41.00;;;;;;5015191;28;20179;-43
2022/11/19 03:11:17;;;;;;;15.27;9.33;;;1.70;41.10;;;;;;5015158;28;20181;-41
2022/11/19 03:16:59;;;;;;;10.90;7.38;;;1.60;40.70;;;;;;5014387;28;20706;-43
2022/11/19 03:20:02;;;;;;;16.92;12.40;;;1.50;40.60;;;;;;5014956;28;20193;-43
2022/11/19 03:22:35;;;;;;;14.32;9.65;;;1.40;40.70;;;;;;5014980;28;20203;-41
2022/11/19 03:25:23;;;;;;;13.57;11.05;;;1.40;41.00;;;;;;5014987;28;20181;-42
2022/11/19 03:27:53;;;;;;;13.73;10.15;;;1.40;41.00;;;;;;5014773;28;20541;-41
2022/11/19 03:30:19;;;;;;;14.18;9.73;;;1.40;41.10;;;;;;5014898;28;20169;-43
2022/11/19 03:32:54;;;;;;;14.55;9.25;;;1.40;40.90;;;;;;5014970;28;20220;-41
2022/11/19 03:35:25;;;;;;;14.02;8.82;;;1.40;40.80;;;;;;4996622;28;20682;-43
2022/11/19 03:37:55;;;;;;;12.20;8.07;;;1.40;40.90;;;;;;5014211;28;20224;-41
2022/11/19 03:40:22;;;;;;;13.32;9.73;;;1.40;40.80;;;;;;5014600;28;20166;-42
2022/11/19 03:42:52;;;;;;;10.13;7.65;;;1.40;40.80;;;;;;5016467;28;20201;-41
2022/11/19 03:45:23;;;;;;;10.45;8.07;;;1.40;40.60;;;;;;5015196;28;20652;-43
2022/11/19 03:47:51;;;;;;;15.18;9.23;;;1.40;40.60;;;;;;5014749;28;20161;-41
2022/11/19 03:50:31;;;;;;;13.98;9.07;;;1.40;40.30;;;;;;5016121;28;20229;-41
2022/11/19 03:52:58;;;;;;;13.25;9.43;;;1.30;40.60;;;;;;5015615;28;20558;-43
2022/11/19 03:55:33;;;;;;;11.25;8.20;;;1.30;40.60;;;;;;5016883;28;20166;-42
2022/11/19 03:58:04;;;;;;;13.15;8.15;;;1.20;40.60;;;;;;4999297;28;20177;-43
2022/11/19 04:00:30;;;;;;;12.27;8.52;;;1.20;40.80;;;;;;5016399;28;20175;-43
2022/11/19 04:02:56;;;;;;;10.98;8.65;;;1.20;40.80;;;;;;5015395;28;20203;-42
2022/11/19 04:05:22;;;;;;;12.40;8.67;;;1.20;40.70;;;;;;5016491;28;20169;-42
2022/11/19 04:07:47;;;;;;;11.55;8.07;;;1.20;40.70;;;;;;5013939;28;20204;-43
2022/11/19 04:10:13;;;;;;;10.23;7.87;;;1.20;40.70;;;;;;5059676;23;20382;-45
2022/11/19 04:12:39;;;;;;;12.82;8.38;;;1.20;40.70;;;;;;5040766;28;20188;-44
2022/11/19 04:15:05;;;;;;;13.40;8.40;;;1.20;40.60;;;;;;5015844;28;20188;-45
2022/11/19 04:17:31;;;;;;;13.45;8.48;;;1.20;40.70;;;;;;5032999;28;20250;-45
2022/11/19 04:19:57;;;;;;;9.90;6.67;;;1.20;40.70;;;;;;5033330;28;20682;-45
2022/11/19 04:22:22;;;;;;;12.93;8.33;;;1.20;40.60;;;;;;5033489;28;20185;-45
2022/11/19 04:24:48;;;;;;;12.50;7.73;;;1.20;40.50;;;;;;5033341;28;20173;-45
2022/11/19 04:27:14;;;;;;;13.37;7.10;;;1.20;40.40;;;;;;5032779;28;20660;-45
2022/11/19 04:29:39;;;;;;;8.47;6.50;;;1.20;40.60;;;;;;5033158;28;20204;-44
2022/11/19 04:32:05;;;;;;;11.70;7.77;;;1.10;40.50;;;;;;5033317;28;20168;-45
2022/11/19 04:34:31;;;;;;;7.80;6.50;;;1.10;40.40;;;;;;5033159;28;20239;-45
2022/11/19 04:36:57;;;;;;;11.17;7.87;;;1.10;40.70;;;;;;5032551;28;20412;-45
2022/11/19 04:39:22;;;;;;;14.87;8.40;;;1.10;40.70;;;;;;5032907;28;20212;-45
2022/11/19 04:41:48;;;;;;;11.30;7.13;;;1.10;40.50;;;;;;5032974;28;20180;-44
2022/11/19 04:44:14;;;;;;;12.27;8.93;;;1.10;40.50;;;;;;5033076;28;20169;-46
2022/11/19 04:46:40;;;;;;;13.27;8.33;;;1.10;40.20;;;;;;5031947;28;20223;-44
2022/11/19 04:49:05;;;;;;;10.60;7.83;;;1.10;40.30;;;;;;5032332;28;20247;-45
2022/11/19 04:51:31;;;;;;;10.83;7.60;;;1.10;40.10;;;;;;5032911;28;20666;-45
2022/11/19 04:53:57;;;;;;;9.00;7.40;;;1.10;40.20;;;;;;5032850;28;20654;-46
2022/11/19 04:56:22;;;;;;;11.73;7.47;;;1.00;39.80;;;;;;5032183;28;20177;-45
2022/11/19 04:58:48;;;;;;;8.87;7.00;;;1.00;40.00;;;;;;5032656;28;20209;-45
2022/11/19 05:01:14;;;;;;;10.73;7.17;;;0.90;40.10;;;;;;5032628;28;20295;-44
2022/11/19 05:03:39;;;;;;;11.97;7.33;;;0.90;40.20;;;;;;5032674;28;20172;-46
2022/11/19 05:06:06;;;;;;;10.50;7.57;;;0.90;40.40;;;;;;5032292;28;20196;-45
2022/11/19 05:08:31;;;;;;;11.85;8.63;;;0.90;40.30;;;;;;5032333;28;20267;-44
2022/11/19 05:10:57;;;;;;;12.33;6.77;;;0.90;40.40;;;;;;5032494;28;20779;-45
2022/11/19 05:13:23;;;;;;;15.10;8.90;;;0.90;40.30;;;;;;5032496;28;20201;-44
2022/11/19 05:15:48;;;;;;;10.90;7.33;;;0.90;40.10;;;;;;5031894;28;20181;-46
2022/11/19 05:18:14;;;;;;;16.23;8.30;;;0.80;39.80;;;;;;5032236;28;20657;-45
2022/11/19 05:20:40;;;;;;;13.17;8.00;;;0.80;40.00;;;;;;5031221;28;20172;-45
2022/11/19 05:23:06;;;;;;;11.07;8.43;;;0.80;40.20;;;;;;5032390;28;20176;-45
2022/11/19 05:25:32;;;;;;;11.93;7.63;;;0.80;40.20;;;;;;5032165;28;20178;-45
2022/11/19 05:27:57;;;;;;;12.10;8.20;;;0.80;40.20;;;;;;5032078;28;20165;-45
2022/11/19 05:30:23;;;;;;;10.10;7.43;;;0.80;40.00;;;;;;5032162;28;20202;-45
2022/11/19 05:32:49;;;;;;;9.90;6.77;;;0.80;39.90;;;;;;5032274;28;20175;-46
2022/11/19 05:35:14;;;;;;;13.30;8.67;;;0.70;40.00;;;;;;5032147;28;20238;-44
2022/11/19 05:37:40;;;;;;;12.00;6.90;;;0.70;39.90;;;;;;5031620;28;20194;-45
2022/11/19 05:40:06;;;;;;;14.30;8.03;;;0.70;39.90;;;;;;5031936;28;20256;-45
2022/11/19 05:42:32;;;;;;;14.30;8.38;;;0.70;40.00;;;;;;5032488;28;20184;-45
2022/11/19 05:44:58;;;;;;;12.93;8.27;;;0.70;40.00;;;;;;5032914;28;20652;-45
2022/11/19 05:47:24;;;;;;;13.10;7.03;;;0.70;40.00;;;;;;5032523;28;20165;-45
2022/11/19 05:49:49;;;;;;;10.40;8.07;;;0.70;40.00;;;;;;5031973;28;20581;-45
2022/11/19 05:52:15;;;;;;;12.50;8.33;;;0.70;40.00;;;;;;5032035;28;20668;-45
2022/11/19 05:54:41;;;;;;;13.83;8.10;;;0.60;39.70;;;;;;5032024;28;20261;-45
2022/11/19 05:57:06;;;;;;;14.00;8.63;;;0.60;39.60;;;;;;5031594;28;20559;-45
2022/11/19 05:59:32;;;;;;;9.13;7.00;;;0.50;39.50;;;;;;5033954;28;20630;-44
2022/11/19 06:01:58;;;;;;;12.27;7.77;;;0.50;39.80;;;;;;5035987;28;20175;-45
2022/11/19 06:04:23;;;;;;;12.97;7.60;;;0.50;40.00;;;;;;5036228;28;20170;-43
2022/11/19 06:06:49;;;;;;;11.10;8.60;;;0.60;40.00;;;;;;5035556;28;20192;-42
2022/11/19 06:09:15;;;;;;;10.43;7.70;;;0.60;39.90;;;;;;5035932;28;20206;-44
2022/11/19 06:11:46;;;;;;;12.97;8.90;;;0.60;39.80;;;;;;5035992;28;20177;-43
2022/11/19 06:14:13;;;;;;;11.35;5.72;;;0.60;39.60;;;;;;5036134;28;20168;-43
2022/11/19 06:16:39;;;;;;;11.15;7.95;;;0.50;39.70;;;;;;5035475;28;20188;-44
2022/11/19 06:19:05;;;;;;;13.60;8.30;;;0.60;39.80;;;;;;5035584;28;20567;-43
2022/11/19 06:21:31;;;;;;;11.10;8.05;;;0.50;40.00;;;;;;5035652;28;20490;-43
2022/11/19 06:23:56;;;;;;;10.40;7.43;;;0.60;39.80;;;;;;5035645;28;20578;-43
2022/11/19 06:26:24;;;;;;;14.70;8.40;;;0.60;39.80;;;;;;5034988;28;20201;-45
2022/11/19 06:28:50;;;;;;;10.80;7.57;;;0.50;39.70;;;;;;5035489;28;20196;-42
2022/11/19 06:31:16;;;;;;;10.00;7.00;;;0.50;39.80;;;;;;5035570;28;20545;-43
2022/11/19 06:33:42;;;;;;;11.65;7.30;;;0.50;39.80;;;;;;5035479;28;20178;-43
2022/11/19 06:36:08;;;;;;;9.90;7.10;;;0.50;40.00;;;;;;5034820;28;20175;-44
2022/11/19 06:38:34;;;;;;;11.50;7.22;;;0.50;40.00;;;;;;5035274;28;20256;-43
2022/11/19 06:40:59;;;;;;;10.37;7.03;;;0.50;39.80;;;;;;5035303;28;20252;-42
2022/11/19 06:43:25;;;;;;;13.33;8.20;;;0.50;39.80;;;;;;5035444;28;20221;-44
2022/11/19 06:45:51;;;;;;;15.63;7.77;;;0.50;39.80;;;;;;5034571;28;20912;-45
2022/11/19 06:48:17;;;;;;;9.80;8.10;;;0.50;39.80;;;;;;5035191;28;20268;-44
2022/11/19 06:50:44;;;;;;;11.73;8.17;;;0.60;39.90;;;;;;5035100;28;20173;-46
2022/11/19 06:53:10;;;;;;;15.23;8.95;;;0.60;39.80;;;;;;5035130;28;20419;-42
2022/11/19 06:55:36;;;;;;;10.77;7.50;;;0.60;39.90;;;;;;5034648;28;20182;-42
2022/11/19 06:58:03;;;;;;;13.40;9.30;;;0.60;39.90;;;;;;5034969;28;20432;-42
2022/11/19 07:00:28;;;;;;;12.30;8.73;;;0.60;39.70;;;;;;5034822;28;20188;-43
2022/11/19 07:02:54;;;;;;;53.03;11.30;;;0.60;39.90;;;;;;5034966;28;20683;-42
2022/11/19 07:05:20;;;;;;;9.83;8.00;;;0.60;39.90;;;;;;5034745;28;20660;-44
2022/11/19 07:07:45;;;;;;;11.27;8.87;;;0.60;39.90;;;;;;5033843;28;20180;-44
2022/11/19 07:10:11;;;;;;;16.20;9.17;;;0.60;39.90;;;;;;5033489;28;20213;-44
2022/11/19 07:12:37;;;;;;;12.93;8.90;;;0.60;39.80;;;;;;5034812;28;20182;-44
2022/11/19 07:15:03;;;;;;;17.50;9.60;;;0.60;39.80;;;;;;5034668;28;20919;-43
2022/11/19 07:17:29;;;;;;;23.52;10.23;;;0.60;39.80;;;;;;5034259;28;20509;-45
2022/11/19 07:19:55;;;;;;;15.60;8.77;;;0.70;40.10;;;;;;5034385;28;20346;-43
2022/11/19 07:22:20;;;;;;;18.40;10.70;;;0.80;40.10;;;;;;5034583;28;20168;-43
2022/11/19 07:24:46;;;;;;;13.43;9.13;;;-0.70;39.60;;;;;;5034692;28;20167;-43
2022/11/19 07:27:12;;;;;;;12.97;9.43;;;0.80;40.30;;;;;;5034001;28;20682;-43
2022/11/19 07:29:38;;;;;;;17.43;11.33;;;0.90;40.30;;;;;;5034265;28;20252;-45
2022/11/19 07:32:04;;;;;;;21.13;14.50;;;0.90;40.30;;;;;;5034360;28;20406;-45
2022/11/19 07:34:30;;;;;;;17.52;12.95;;;1.00;40.40;;;;;;5034245;28;20249;-43
2022/11/19 07:36:55;;;;;;;23.40;14.77;;;1.00;40.50;;;;;;5033873;28;20202;-44
2022/11/19 07:39:21;;;;;;;16.90;10.87;;;1.00;40.50;;;;;;5016276;28;20242;-43
2022/11/19 07:44:31;;;;;;;19.83;10.57;;;1.10;40.60;;;;;;5034275;28;20214;-42
2022/11/19 07:46:57;;;;;;;20.27;12.50;;;1.10;40.60;;;;;;5033558;28;20177;-43
2022/11/19 07:49:24;;;;;;;17.37;11.13;;;1.10;40.50;;;;;;5034040;28;20779;-44
2022/11/19 07:51:51;;;;;;;19.27;11.82;;;1.20;40.70;;;;;;5034041;28;20182;-44
2022/11/19 07:54:16;;;;;;;21.05;11.43;;;1.40;40.70;;;;;;5034004;28;20180;-45
2022/11/19 07:56:42;;;;;;;17.00;12.30;;;1.50;40.80;;;;;;5033575;28;20184;-43
2022/11/19 07:59:08;;;;;;;15.63;11.60;;;1.60;40.60;;;;;;5033727;28;20503;-45
2022/11/19 08:01:35;;;;;;;14.13;10.50;;;1.70;40.70;;;;;;5033707;28;20414;-44
2022/11/19 08:04:01;;;;;;;17.75;10.50;;;1.70;40.80;;;;;;5033753;28;20180;-45
2022/11/19 08:06:28;;;;;;;18.80;10.48;;;1.90;40.90;;;;;;5033271;28;20177;-44
2022/11/19 08:08:55;;;;;;;15.02;10.70;;;2.00;40.90;;;;;;5033702;28;20328;-45
2022/11/19 08:11:21;;;;;;;21.30;13.60;;;2.30;41.00;;;;;;5033586;28;20173;-44
2022/11/19 08:13:47;;;;;;;16.85;12.00;;;2.80;41.40;;;;;;5033559;28;20276;-43
2022/11/19 08:19:08;;;;;;;19.35;13.15;;;3.50;40.10;;;;;;5033543;28;20461;-45
2022/11/19 08:21:35;;;;;;;24.45;14.32;;;4.00;39.80;;;;;;5033302;28;20547;-45
2022/11/19 08:24:01;;;;;;;19.98;12.30;;;4.50;39.00;;;;;;5033590;28;20177;-46
2022/11/19 08:26:27;;;;;;;18.30;11.52;;;4.70;38.20;;;;;;5032637;28;20174;-45
2022/11/19 08:28:53;;;;;;;21.10;11.97;;;4.70;38.20;;;;;;5033410;28;20557;-44
2022/11/19 08:31:19;;;;;;;17.27;11.82;;;4.70;38.20;;;;;;5033451;28;20170;-45
2022/11/19 08:33:45;;;;;;;17.57;10.03;;;4.90;39.30;;;;;;5033408;28;20177;-46
2022/11/19 08:36:11;;;;;;;17.03;12.97;;;5.10;38.60;;;;;;5032764;28;20213;-43
2022/11/19 08:38:36;;;;;;;18.35;12.40;;;5.40;38.20;;;;;;5032881;28;20212;-45
2022/11/19 08:43:46;;;;;;;17.23;11.55;;;6.30;37.00;;;;;;5033280;28;20161;-44
2022/11/19 08:46:12;;;;;;;18.03;13.90;;;6.90;36.50;;;;;;5032337;28;20543;-46
2022/11/19 08:48:37;;;;;;;17.30;12.07;;;7.50;36.00;;;;;;5032742;28;20194;-43
2022/11/19 08:51:05;;;;;;;22.20;13.40;;;8.10;35.40;;;;;;5032901;28;20177;-46
2022/11/19 08:53:31;;;;;;;17.55;12.70;;;9.80;34.90;;;;;;5032700;28;20266;-46
2022/11/19 08:55:57;;;;;;;18.13;12.37;;;9.10;33.60;;;;;;5032059;28;20268;-45
2022/11/19 08:58:23;;;;;;;16.67;12.40;;;9.20;33.50;;;;;;5032583;28;20440;-45
2022/11/19 09:00:49;;;;;;;19.40;12.73;;;9.20;33.30;;;;;;5032621;28;20178;-45
2022/11/19 09:03:15;;;;;;;17.80;12.73;;;9.20;32.80;;;;;;5032583;28;20260;-44
2022/11/19 09:05:41;;;;;;;18.13;12.90;;;9.10;32.90;;;;;;5031814;28;20896;-45
2022/11/19 09:08:07;;;;;;;15.48;12.75;;;9.00;32.90;;;;;;5032455;28;20180;-45
2022/11/19 09:10:33;;;;;;;15.37;11.37;;;8.90;33.40;;;;;;5032349;28;20686;-46
2022/11/19 09:13:01;;;;;;;15.00;11.43;;;8.70;33.50;;;;;;5032470;28;20504;-45
2022/11/19 09:15:27;;;;;;;20.02;13.00;;;8.40;33.80;;;;;;5032261;28;20603;-44
2022/11/19 09:17:52;;;;;;;19.87;14.03;;;8.20;33.60;;;;;;5031885;28;20265;-44
2022/11/19 09:20:18;;;;;;;15.90;11.03;;;8.00;33.80;;;;;;5032441;28;20452;-46
2022/11/19 09:22:44;;;;;;;18.93;11.13;;;7.80;33.90;;;;;;5032300;28;20249;-46
2022/11/19 09:25:10;;;;;;;14.67;11.10;;;7.50;34.50;;;;;;5032157;28;20408;-46
2022/11/19 09:27:37;;;;;;;28.00;12.88;;;7.40;34.50;;;;;;5031658;28;20404;-45
2022/11/19 09:30:04;;;;;;;18.63;12.10;;;7.20;35.40;;;;;;5032174;28;20285;-45
2022/11/19 09:32:30;;;;;;;18.75;11.60;;;7.10;35.90;;;;;;5032045;28;20189;-45
2022/11/19 09:34:56;;;;;;;24.97;15.20;;;7.20;36.30;;;;;;5031459;28;20189;-45
2022/11/19 09:37:22;;;;;;;19.10;13.80;;;7.30;36.00;;;;;;5031451;28;20419;-45
2022/11/19 09:39:47;;;;;;;18.70;12.33;;;7.40;36.10;;;;;;5031913;28;20213;-45
2022/11/19 09:42:27;;;;;;;18.27;12.57;;;7.50;36.70;;;;;;5032102;28;20186;-45
2022/11/19 09:45:12;;;;;;;16.08;12.90;;;7.50;33.00;;;;;;5032200;28;20401;-45
2022/11/19 09:48:08;;;;;;;19.70;12.40;;;7.30;35.10;;;;;;5031589;28;20154;-45
2022/11/19 09:50:46;;;;;;;16.02;10.18;;;7.10;34.10;;;;;;5032100;28;20530;-45
2022/11/19 09:53:20;;;;;;;17.80;13.93;;;7.10;35.00;;;;;;5032097;28;20245;-45
2022/11/19 09:55:49;;;;;;;16.77;11.32;;;7.70;35.70;;;;;;5031570;28;20162;-45
2022/11/19 09:58:40;;;;;;;17.95;12.13;;;8.30;33.90;;;;;;5031742;28;20165;-45
2022/11/19 10:01:17;;;;;;;17.80;13.80;;;8.40;32.70;;;;;;5031803;28;20530;-45
2022/11/19 10:03:49;;;;;;;21.15;15.55;;;8.50;32.40;;;;;;5031872;28;20555;-44
2022/11/19 10:06:22;;;;;;;19.10;11.20;;;8.60;32.40;;;;;;5031373;28;20198;-45
2022/11/19 10:09:08;;;;;;;14.75;12.30;;;8.50;32.20;;;;;;5030391;28;20212;-45
2022/11/19 10:12:04;;;;;;;18.30;11.98;;;8.80;32.60;;;;;;5032097;28;20170;-45
2022/11/19 10:15:24;;;;;;;17.88;11.35;;;8.80;30.10;;;;;;5031675;28;20170;-45
2022/11/19 10:18:19;;;;;;;17.30;13.25;;;8.40;31.30;;;;;;4950756;29;20189;-45
2022/11/19 10:20:59;;;;;;;16.15;11.65;;;8.00;31.80;;;;;;5031392;28;20203;-45
2022/11/19 10:23:45;;;;;;;20.48;14.48;;;7.80;33.10;;;;;;5031921;28;20162;-44
2022/11/19 10:26:15;;;;;;;19.00;14.80;;;7.50;33.60;;;;;;5031324;28;20158;-44
2022/11/19 10:28:50;;;;;;;24.67;13.90;;;7.50;34.00;;;;;;5031857;28;20213;-44
2022/11/19 10:31:25;;;;;;;16.42;11.65;;;7.60;34.60;;;;;;5031676;28;20182;-43
2022/11/19 10:34:16;;;;;;;20.10;13.77;;;7.50;33.60;;;;;;5031558;28;20660;-45
2022/11/19 10:36:47;;;;;;;18.77;14.10;;;7.50;34.60;;;;;;5030332;28;20194;-45
2022/11/19 10:39:26;;;;;;;15.60;12.80;;;7.60;34.50;;;;;;5031627;28;20221;-43
2022/11/19 10:42:01;;;;;;;22.17;15.15;;;7.60;35.00;;;;;;5031519;28;20173;-45
2022/11/19 10:44:42;;;;;;;20.13;13.98;;;7.60;33.20;;;;;;5032013;28;20239;-45
2022/11/19 10:47:22;;;;;;;16.45;11.80;;;7.50;34.30;;;;;;5034895;28;20510;-44
2022/11/19 10:49:53;;;;;;;20.58;13.05;;;7.60;33.90;;;;;;5035401;28;20624;-43
2022/11/19 10:52:40;;;;;;;21.40;13.23;;;7.60;33.10;;;;;;5034967;28;20676;-44
2022/11/19 10:55:15;;;;;;;21.95;15.10;;;7.60;32.80;;;;;;5035358;28;20205;-43
2022/11/19 10:57:41;;;;;;;22.10;14.05;;;7.40;33.60;;;;;;5034393;28;20169;-44
2022/11/19 11:00:07;;;;;;;18.10;12.67;;;7.40;33.80;;;;;;5035144;28;20216;-44
2022/11/19 11:02:47;;;;;;;23.10;13.85;;;7.40;32.00;;;;;;5034758;28;20470;-43
2022/11/19 11:05:15;;;;;;;17.88;14.00;;;7.30;33.00;;;;;;5035088;28;20245;-44
2022/11/19 11:07:56;;;;;;;17.50;12.98;;;7.20;33.80;;;;;;5034368;28;20537;-43
2022/11/19 11:10:41;;;;;;;19.25;13.10;;;7.40;34.40;;;;;;5034701;28;20244;-45
2022/11/19 11:16:08;;;;;;;16.98;10.98;;;7.70;34.30;;;;;;5034388;28;20270;-45
2022/11/19 11:18:39;;;;;;;23.60;12.40;;;7.80;34.30;;;;;;5034324;28;20570;-44
2022/11/19 11:21:07;;;;;;;17.08;11.60;;;7.80;32.50;;;;;;5034745;28;20650;-44
2022/11/19 11:23:33;;;;;;;20.77;12.60;;;7.80;33.10;;;;;;5034232;28;20211;-43
2022/11/19 11:26:10;;;;;;;20.20;12.93;;;8.00;34.30;;;;;;5033831;28;20170;-44
2022/11/19 11:28:52;;;;;;;19.52;12.23;;;8.20;33.60;;;;;;5034468;28;20572;-46
2022/11/19 11:31:32;;;;;;;12.50;9.50;;;8.20;31.50;;;;;;5034466;28;20642;-43
2022/11/19 11:33:58;;;;;;;13.30;8.80;;;8.20;32.40;;;;;;5034414;28;20283;-45
2022/11/19 11:36:26;;;;;;;11.63;8.05;;;8.40;32.60;;;;;;5033898;28;20189;-45
2022/11/19 11:38:55;;;;;;;11.65;8.48;;;8.50;32.00;;;;;;5053809;23;20225;-39
2022/11/19 11:41:37;;;;;;;9.55;6.38;;;8.70;30.80;;;;;;5054129;28;20260;-40
2022/11/19 11:44:17;;;;;;;10.52;7.78;;;8.90;27.10;;;;;;5052973;28;20297;-39
2022/11/19 11:46:50;;;;;;;10.98;8.75;;;9.20;30.40;;;;;;5053567;28;20623;-40
2022/11/19 11:49:27;;;;;;;12.52;8.55;;;9.50;30.30;;;;;;5054360;28;20214;-39
2022/11/19 11:52:02;;;;;;;12.10;8.50;;;9.60;30.50;;;;;;5054026;28;20640;-40
2022/11/19 11:54:27;;;;;;;11.35;7.65;;;9.80;30.20;;;;;;5053959;28;20180;-40
2022/11/19 11:57:06;;;;;;;12.70;8.33;;;10.10;30.50;;;;;;5052744;28;20177;-40
2022/11/19 11:59:32;;;;;;;13.82;9.80;;;10.30;27.10;;;;;;5053695;28;20447;-40
2022/11/19 12:02:04;;;;;;;10.07;7.30;;;10.40;26.50;;;;;;5053966;28;20218;-40
2022/11/19 12:04:30;;;;;;;12.27;9.10;;;10.40;28.00;;;;;;5053738;28;20643;-40
2022/11/19 12:07:17;;;;;;;9.88;7.28;;;10.50;26.10;;;;;;5053123;28;20174;-40
2022/11/19 12:10:13;;;;;;;12.40;8.48;;;10.50;25.40;;;;;;5052312;28;20618;-39
2022/11/19 12:13:00;;;;;;;10.93;8.50;;;10.50;23.20;;;;;;5053655;28;20196;-40
2022/11/19 12:15:41;;;;;;;14.40;9.75;;;10.60;26.40;;;;;;5053500;28;20172;-40
2022/11/19 12:18:19;;;;;;;12.13;7.82;;;10.70;25.70;;;;;;5053490;28;20168;-40
2022/11/19 12:21:10;;;;;;;7.93;7.13;;;11.20;25.70;;;;;;5053642;28;20275;-40
2022/11/19 12:23:50;;;;;;;14.25;8.27;;;11.90;25.70;;;;;;5053398;28;20189;-40
2022/11/19 12:26:50;;;;;;;12.98;8.82;;;12.00;22.50;;;;;;5052743;28;20169;-40
2022/11/19 12:29:19;;;;;;;18.63;11.02;;;12.10;24.40;;;;;;5012050;28;20741;-41
2022/11/19 12:31:53;;;;;;;9.45;7.72;;;11.90;22.40;;;;;;5053198;28;20223;-41
2022/11/19 12:35:10;;;;;;;13.23;9.50;;;11.80;23.80;;;;;;5053099;28;20251;-40
2022/11/19 12:38:05;;;;;;;12.45;8.95;;;11.70;24.70;;;;;;5034920;28;20185;-41
2022/11/19 12:40:37;;;;;;;11.35;7.70;;;11.60;23.80;;;;;;5053118;28;20181;-42
2022/11/19 12:43:18;;;;;;;14.75;7.75;;;11.60;22.00;;;;;;5053053;28;20196;-40
2022/11/19 12:46:11;;;;;;;16.17;7.63;;;11.90;22.90;;;;;;5051176;28;20174;-40
2022/11/19 12:49:18;;;;;;;9.27;7.20;;;13.10;21.80;;;;;;5052779;28;20291;-41
2022/11/19 12:51:54;;;;;;;9.88;7.00;;;14.50;20.80;;;;;;5047176;28;20192;-40
2022/11/19 12:54:54;;;;;;;9.38;7.35;;;15.20;17.40;;;;;;5052925;28;20204;-41
2022/11/19 12:57:19;;;;;;;10.50;7.78;;;15.30;17.70;;;;;;5052166;28;20177;-41
2022/11/19 13:00:12;;;;;;;12.40;7.10;;;15.10;17.90;;;;;;5052592;28;20265;-41
2022/11/19 13:03:02;;;;;;;8.75;7.18;;;14.60;19.80;;;;;;5052645;28;20182;-41
2022/11/19 13:05:41;;;;;;;9.60;6.15;;;13.80;17.80;;;;;;5052357;28;20162;-40
2022/11/19 13:08:19;;;;;;;11.75;6.80;;;13.00;20.20;;;;;;5051904;28;20161;-40
2022/11/19 13:10:49;;;;;;;10.32;7.28;;;12.50;21.70;;;;;;5052490;28;20180;-40
2022/11/19 13:13:24;;;;;;;6.18;5.43;;;12.20;23.40;;;;;;5052551;28;20181;-40
2022/11/19 13:16:08;;;;;;;5.00;4.45;;;11.90;20.60;;;;;;5051968;28;20667;-40
2022/11/19 13:18:38;;;;;;;7.32;4.38;;;11.50;18.70;;;;;;5052235;28;20209;-40
2022/11/19 13:21:18;;;;;;;6.10;4.18;;;11.10;20.30;;;;;;5052451;28;20671;-40
2022/11/19 13:23:46;;;;;;;5.38;3.97;;;10.90;21.30;;;;;;5052445;28;20205;-40